createdAt,value
2018-12-11T00:02:05.802Z,101402.89
2018-12-11T00:04:34.505Z,101406.41
2018-12-11T00:07:03.691Z,101413.28
2018-12-11T00:09:32.395Z,101412.91
2018-12-11T00:12:01.203Z,101421.93
2018-12-11T00:14:29.928Z,101421.07
2018-12-11T00:16:58.755Z,101425.37
2018-12-11T00:19:27.635Z,101431.45
2018-12-11T00:21:56.429Z,101438.06
2018-12-11T00:24:25.304Z,101439.26
2018-12-11T00:26:54.315Z,101445.84
2018-12-11T00:29:23.308Z,101450.52
2018-12-11T00:31:52.224Z,101450.07
2018-12-11T00:34:21.071Z,101460.98
2018-12-11T00:36:49.724Z,101455.82
2018-12-11T00:39:18.587Z,101463.17
2018-12-11T00:41:47.461Z,101468.78
2018-12-11T00:44:16.477Z,101475.27
2018-12-11T00:46:45.380Z,101472.66
2018-12-11T00:49:14.194Z,101478.68
2018-12-11T00:51:42.833Z,101476.57
2018-12-11T00:54:11.551Z,101480.03
2018-12-11T00:56:43.194Z,101479.62
2018-12-11T00:59:12.094Z,101484.02
2018-12-11T01:01:40.872Z,101480.94
2018-12-11T01:04:09.602Z,101483.50
2018-12-11T01:06:38.280Z,101492.59
2018-12-11T01:09:07.704Z,101487.83
2018-12-11T01:11:36.437Z,101492.62
2018-12-11T01:14:05.160Z,101502.59
2018-12-11T01:16:33.763Z,101507.79
2018-12-11T01:19:02.593Z,101513.89
2018-12-11T01:21:31.627Z,101517.80
2018-12-11T01:24:00.444Z,101530.78
2018-12-11T01:26:29.384Z,101530.80
2018-12-11T01:28:58.263Z,101532.95
2018-12-11T01:31:26.886Z,101532.97
2018-12-11T01:33:55.550Z,101538.61
2018-12-11T01:36:24.339Z,101548.11
2018-12-11T01:38:53.138Z,101548.99
2018-12-11T01:41:21.867Z,101545.13
2018-12-11T01:43:50.495Z,101556.86
2018-12-11T01:46:19.259Z,101551.70
2018-12-11T01:48:48.501Z,101563.02
2018-12-11T01:51:17.191Z,101560.85
2018-12-11T01:53:46.031Z,101559.13
2018-12-11T01:56:14.831Z,101563.03
2018-12-11T01:58:43.511Z,101576.01
2018-12-11T02:01:12.178Z,101581.64
2018-12-11T02:03:40.803Z,101582.94
2018-12-11T02:06:09.384Z,101582.95
2018-12-11T02:08:38.450Z,101589.47
2018-12-11T02:11:07.284Z,101593.84
2018-12-11T02:13:36.103Z,101593.80
2018-12-11T02:16:05.335Z,101599.48
2018-12-11T02:18:34.249Z,101602.95
2018-12-11T02:21:03.049Z,101599.98
2018-12-11T02:23:31.980Z,101609.02
2018-12-11T02:26:01.175Z,101610.31
2018-12-11T02:28:30.086Z,101609.45
2018-12-11T02:30:59.071Z,101609.45
2018-12-11T02:33:28.219Z,101612.05
2018-12-11T02:35:57.331Z,101612.55
2018-12-11T02:38:26.293Z,101614.30
2018-12-11T02:40:55.326Z,101619.93
2018-12-11T02:43:24.138Z,101624.31
2018-12-11T02:45:53.060Z,101626.47
2018-12-11T02:48:21.736Z,101629.09
2018-12-11T02:50:50.511Z,101632.97
2018-12-11T02:53:19.218Z,101632.97
2018-12-11T02:55:48.365Z,101637.72
2018-12-11T02:58:17.105Z,101642.06
2018-12-11T03:00:46.186Z,101644.64
2018-12-11T03:03:15.257Z,101645.45
2018-12-11T03:05:44.137Z,101652.35
2018-12-11T03:08:12.965Z,101653.65
2018-12-11T03:10:41.816Z,101660.14
2018-12-11T03:13:10.540Z,101664.47
2018-12-11T03:15:39.400Z,101667.50
2018-12-11T03:18:08.097Z,101661.39
2018-12-11T03:20:36.814Z,101671.74
2018-12-11T03:23:05.426Z,101676.02
2018-12-11T03:25:34.319Z,101673.85
2018-12-11T03:28:03.246Z,101683.80
2018-12-11T03:30:32.143Z,101690.73
2018-12-11T03:33:01.019Z,101686.83
2018-12-11T03:35:29.641Z,101695.91
2018-12-11T03:37:58.313Z,101689.00
2018-12-11T03:40:27.226Z,101695.04
2018-12-11T03:42:55.992Z,101707.16
2018-12-11T03:45:24.859Z,101702.83
2018-12-11T03:47:53.852Z,101702.39
2018-12-11T03:50:22.779Z,101713.22
2018-12-11T03:52:51.571Z,101713.73
2018-12-11T03:55:20.509Z,101719.36
2018-12-11T03:57:49.233Z,101715.47
2018-12-11T04:00:18.036Z,101724.94
2018-12-11T04:02:46.693Z,101726.70
2018-12-11T04:05:15.402Z,101724.94
2018-12-11T04:07:44.110Z,101726.30
2018-12-11T04:10:12.980Z,101722.39
2018-12-11T04:12:41.765Z,101721.97
2018-12-11T04:15:10.925Z,101723.31
2018-12-11T04:17:39.686Z,101725.91
2018-12-11T04:20:08.753Z,101731.54
2018-12-11T04:22:37.954Z,101738.92
2018-12-11T04:25:07.861Z,101741.58
2018-12-11T04:27:36.930Z,101743.36
2018-12-11T04:30:07.426Z,101747.69
2018-12-11T04:32:37.052Z,101751.16
2018-12-11T04:35:06.343Z,101745.54
2018-12-11T04:37:35.564Z,101752.46
2018-12-11T04:40:04.952Z,101751.21
2018-12-11T04:42:33.612Z,101759.88
2018-12-11T04:45:02.395Z,101763.32
2018-12-11T04:47:31.258Z,101770.67
2018-12-11T04:50:00.235Z,101775.43
2018-12-11T04:52:29.231Z,101776.31
2018-12-11T04:54:57.886Z,101780.19
2018-12-11T04:57:26.747Z,101779.33
2018-12-11T04:59:55.419Z,101779.72
2018-12-11T05:02:24.397Z,101781.92
2018-12-11T05:04:53.196Z,101783.66
2018-12-11T05:07:21.878Z,101792.73
2018-12-11T05:09:50.811Z,101801.38
2018-12-11T05:12:19.807Z,101796.20
2018-12-11T05:14:48.687Z,101801.78
2018-12-11T05:17:17.309Z,101802.64
2018-12-11T05:19:45.987Z,101803.12
2018-12-11T05:22:14.690Z,101803.98
2018-12-11T05:24:43.422Z,101802.69
2018-12-11T05:27:12.289Z,101803.55
2018-12-11T05:29:41.194Z,101813.03
2018-12-11T05:32:10.131Z,101820.42
2018-12-11T05:34:38.955Z,101821.29
2018-12-11T05:37:07.873Z,101813.50
2018-12-11T05:39:36.615Z,101810.91
2018-12-11T05:42:05.643Z,101812.64
2018-12-11T05:44:34.372Z,101823.45
2018-12-11T05:47:03.587Z,101830.80
2018-12-11T05:49:32.428Z,101810.59
2018-12-11T05:52:02.083Z,101842.05
2018-12-11T05:54:30.753Z,101846.39
2018-12-11T05:56:59.697Z,101856.77
2018-12-11T05:59:28.652Z,101858.50
2018-12-11T06:01:57.359Z,101854.16
2018-12-11T06:04:26.073Z,101857.20
2018-12-11T06:06:54.821Z,101857.64
2018-12-11T06:09:23.576Z,101860.66
2018-12-11T06:11:52.323Z,101864.55
2018-12-11T06:14:21.592Z,101874.50
2018-12-11T06:16:50.489Z,101873.67
2018-12-11T06:19:19.317Z,101876.27
2018-12-11T06:21:48.471Z,101878.87
2018-12-11T06:24:17.457Z,101883.63
2018-12-11T06:26:46.432Z,101884.06
2018-12-11T06:29:15.209Z,101892.71
2018-12-11T06:31:44.279Z,101894.87
2018-12-11T06:34:13.015Z,101887.05
2018-12-11T06:36:41.860Z,101893.97
2018-12-11T06:39:10.924Z,101884.45
2018-12-11T06:41:39.759Z,101892.23
2018-12-11T06:44:08.854Z,101894.01
2018-12-11T06:46:37.619Z,101893.14
2018-12-11T06:49:06.525Z,101897.91
2018-12-11T06:51:35.320Z,101904.82
2018-12-11T06:54:04.077Z,101911.31
2018-12-11T06:56:32.975Z,101927.28
2018-12-11T06:59:01.818Z,101897.51
2018-12-11T07:01:30.795Z,101917.75
2018-12-11T07:03:59.695Z,101917.28
2018-12-11T07:06:28.427Z,101920.27
2018-12-11T07:08:57.329Z,101918.14
2018-12-11T07:11:26.408Z,101920.31
2018-12-11T07:13:55.485Z,101920.74
2018-12-11T07:16:24.264Z,101930.66
2018-12-11T07:18:53.298Z,101933.25
2018-12-11T07:21:22.327Z,101925.02
2018-12-11T07:23:51.197Z,101931.91
2018-12-11T07:26:20.277Z,101934.06
2018-12-11T07:28:49.252Z,101927.14
2018-12-11T07:31:17.870Z,101930.17
2018-12-11T07:33:50.870Z,101928.39
2018-12-11T07:36:18.148Z,101925.36
2018-12-11T07:38:47.126Z,101930.55
2018-12-11T07:41:16.241Z,101935.70
2018-12-11T07:43:45.059Z,101931.80
2018-12-11T07:46:13.772Z,101941.72
2018-12-11T07:48:42.740Z,101944.79
2018-12-11T07:51:11.447Z,101952.97
2018-12-11T07:53:40.381Z,101952.11
2018-12-11T07:56:09.454Z,101967.69
2018-12-11T07:58:38.788Z,101961.63
2018-12-11T08:01:07.721Z,101969.84
2018-12-11T08:03:36.717Z,101969.37
2018-12-11T08:06:05.743Z,101966.38
2018-12-11T08:08:34.568Z,101958.98
2018-12-11T08:11:03.700Z,101964.22
2018-12-11T08:13:32.551Z,101971.14
2018-12-11T08:16:01.741Z,101976.30
2018-12-11T08:18:30.598Z,101982.36
2018-12-11T08:20:59.359Z,101989.71
2018-12-11T08:23:28.374Z,101987.98
2018-12-11T08:25:57.370Z,101988.85
2018-12-11T08:28:26.247Z,101991.88
2018-12-11T08:30:54.943Z,101999.23
2018-12-11T08:33:23.711Z,101997.51
2018-12-11T08:35:52.643Z,102002.27
2018-12-11T08:38:21.505Z,102014.39
2018-12-11T08:40:50.397Z,102009.20
2018-12-11T08:43:19.459Z,102029.50
2018-12-11T08:45:49.070Z,102028.64
2018-12-11T08:48:17.927Z,102018.67
2018-12-11T08:50:47.096Z,102029.89
2018-12-11T08:53:16.043Z,102031.66
2018-12-11T08:55:44.665Z,102024.30
2018-12-11T08:58:13.521Z,102034.27
2018-12-11T09:00:42.189Z,102029.08
2018-12-11T09:03:11.184Z,102037.73
2018-12-11T09:05:39.949Z,102042.05
2018-12-11T09:08:08.636Z,102043.75
2018-12-11T09:10:37.621Z,102041.16
2018-12-11T09:13:06.373Z,102044.22
2018-12-11T09:15:34.995Z,102041.19
2018-12-11T09:18:04.026Z,102054.62
2018-12-11T09:20:32.666Z,102063.23
2018-12-11T09:23:01.521Z,102062.80
2018-12-11T09:25:30.602Z,102061.94
2018-12-11T09:27:59.381Z,102063.70
2018-12-11T09:30:28.238Z,102063.67
2018-12-11T09:32:57.143Z,102069.73
2018-12-11T09:35:31.564Z,102076.22
2018-12-11T09:38:00.315Z,102074.92
2018-12-11T09:40:29.074Z,102074.49
2018-12-11T09:42:57.755Z,102082.25
2018-12-11T09:45:27.010Z,102084.85
2018-12-11T09:47:55.723Z,102085.32
2018-12-11T09:50:24.529Z,102081.42
2018-12-11T09:52:53.465Z,102071.46
2018-12-11T09:55:22.449Z,102080.13
2018-12-11T09:57:51.055Z,102088.36
2018-12-11T10:00:25.811Z,102086.63
2018-12-11T10:02:50.793Z,102087.48
2018-12-11T10:05:19.399Z,102081.43
2018-12-11T10:07:48.055Z,102090.08
2018-12-11T10:10:17.006Z,102094.84
2018-12-11T10:12:45.705Z,102099.18
2018-12-11T10:15:14.946Z,102106.50
2018-12-11T10:17:43.888Z,102099.58
2018-12-11T10:20:13.983Z,102107.80
2018-12-11T10:22:42.732Z,102114.73
2018-12-11T10:25:11.571Z,102117.77
2018-12-11T10:27:40.605Z,102119.06
2018-12-11T10:30:10.618Z,102112.13
2018-12-11T10:32:39.781Z,102119.50
2018-12-11T10:35:08.764Z,102120.36
2018-12-11T10:37:37.703Z,102114.73
2018-12-11T10:40:07.005Z,102116.90
2018-12-11T10:42:35.841Z,102123.39
2018-12-11T10:45:05.208Z,102123.83
2018-12-11T10:47:34.477Z,102130.33
2018-12-11T10:50:03.159Z,102141.59
2018-12-11T10:52:32.351Z,102151.58
2018-12-11T10:55:01.152Z,102146.39
2018-12-11T10:57:30.099Z,102149.84
2018-12-11T10:59:59.096Z,102150.25
2018-12-11T11:02:28.526Z,102161.94
2018-12-11T11:04:57.389Z,102156.75
2018-12-11T11:07:26.387Z,102158.95
2018-12-11T11:09:55.125Z,102159.34
2018-12-11T11:12:24.019Z,102163.67
2018-12-11T11:14:53.012Z,102142.09
2018-12-11T11:17:21.707Z,102172.37
2018-12-11T11:19:50.765Z,102185.33
2018-12-11T11:22:19.478Z,102184.90
2018-12-11T11:24:48.545Z,102181.90
2018-12-11T11:27:17.389Z,102194.42
2018-12-11T11:29:46.475Z,102160.77
2018-12-11T11:32:15.348Z,102191.42
2018-12-11T11:34:44.213Z,102192.73
2018-12-11T11:37:12.799Z,102198.81
2018-12-11T11:39:41.726Z,102200.55
2018-12-11T11:42:10.874Z,102201.41
2018-12-11T11:44:40.765Z,102206.61
2018-12-11T11:47:10.329Z,102214.86
2018-12-11T11:49:39.161Z,102214.42
2018-12-11T11:52:07.958Z,102219.19
2018-12-11T11:54:37.025Z,102225.69
2018-12-11T11:57:05.919Z,102221.80
2018-12-11T11:59:34.917Z,102216.59
2018-12-11T12:02:03.791Z,102237.80
2018-12-11T12:04:32.750Z,102229.17
2018-12-11T12:07:01.633Z,102235.25
2018-12-11T12:09:30.620Z,102232.23
2018-12-11T12:11:59.329Z,102241.74
2018-12-11T12:14:28.017Z,102246.95
2018-12-11T12:16:57.017Z,102245.22
2018-12-11T12:19:25.644Z,102246.52
2018-12-11T12:21:54.729Z,102253.87
2018-12-11T12:24:23.488Z,102252.56
2018-12-11T12:26:52.313Z,102256.93
2018-12-11T12:29:21.113Z,102248.70
2018-12-11T12:31:50.002Z,102249.56
2018-12-11T12:34:18.690Z,102255.61
2018-12-11T12:36:47.539Z,102268.61
2018-12-11T12:39:16.232Z,102272.08
2018-12-11T12:41:45.124Z,102283.33
2018-12-11T12:44:14.239Z,102287.22
2018-12-11T12:46:43.675Z,102285.91
2018-12-11T12:49:12.869Z,102286.78
2018-12-11T12:51:41.663Z,102290.69
2018-12-11T12:54:10.302Z,102291.52
2018-12-11T12:56:39.248Z,102288.92
2018-12-11T12:59:08.231Z,102284.63
2018-12-11T13:01:37.044Z,102283.75
2018-12-11T13:04:05.804Z,102288.09
2018-12-11T13:06:34.921Z,102288.50
2018-12-11T13:09:05.734Z,102291.55
2018-12-11T13:11:34.765Z,102294.14
2018-12-11T13:14:03.545Z,102298.88
2018-12-11T13:16:32.458Z,102311.43
2018-12-11T13:19:01.207Z,102310.56
2018-12-11T13:21:30.416Z,102318.79
2018-12-11T13:23:59.376Z,102318.37
2018-12-11T13:26:28.384Z,102324.85
2018-12-11T13:28:57.528Z,102321.37
2018-12-11T13:31:26.634Z,102330.92
2018-12-11T13:33:55.654Z,102333.92
2018-12-11T13:36:24.537Z,102333.08
2018-12-11T13:38:54.191Z,102331.33
2018-12-11T13:41:23.106Z,102333.06
2018-12-11T13:43:51.743Z,102334.81
2018-12-11T13:46:20.456Z,102330.91
2018-12-11T13:48:49.593Z,102331.77
2018-12-11T13:51:18.882Z,102333.92
2018-12-11T13:53:47.717Z,102344.72
2018-12-11T13:56:16.926Z,102350.33
2018-12-11T13:58:45.914Z,102343.41
2018-12-11T14:01:14.898Z,102348.19
2018-12-11T14:03:43.931Z,102351.65
2018-12-11T14:06:12.756Z,102352.08
2018-12-11T14:08:41.530Z,102354.23
2018-12-11T14:11:10.170Z,102362.04
2018-12-11T14:13:38.932Z,102357.70
2018-12-11T14:16:07.740Z,102362.45
2018-12-11T14:18:37.598Z,102364.19
2018-12-11T14:21:06.860Z,102358.98
2018-12-11T14:23:35.559Z,102366.77
2018-12-11T14:26:04.569Z,102376.28
2018-12-11T14:28:33.406Z,102381.48
2018-12-11T14:31:02.701Z,102387.52
2018-12-11T14:33:31.357Z,102385.33
2018-12-11T14:36:00.351Z,102383.17
2018-12-11T14:38:29.216Z,102374.48
2018-12-11T14:40:57.951Z,102380.49
2018-12-11T14:43:27.005Z,102390.84
2018-12-11T14:45:56.023Z,102391.22
2018-12-11T14:48:25.084Z,102408.45
2018-12-11T14:50:53.931Z,102414.52
2018-12-11T14:53:23.115Z,102418.84
2018-12-11T14:55:51.900Z,102423.67
2018-12-11T14:58:20.625Z,102422.41
2018-12-11T15:00:49.686Z,102418.11
2018-12-11T15:03:18.410Z,102420.74
2018-12-11T15:05:47.093Z,102422.04
2018-12-11T15:08:16.499Z,102429.39
2018-12-11T15:10:45.432Z,102421.12
2018-12-11T15:13:14.190Z,102440.16
2018-12-11T15:15:43.070Z,102441.42
2018-12-11T15:18:12.109Z,102445.25
2018-12-11T15:20:41.159Z,102438.70
2018-12-11T15:23:09.890Z,102448.13
2018-12-11T15:25:38.721Z,102433.34
2018-12-11T15:28:07.912Z,102431.57
2018-12-11T15:30:36.693Z,102424.56
2018-12-11T15:33:06.170Z,102431.42
2018-12-11T15:35:35.157Z,102440.84
2018-12-11T15:38:04.309Z,102444.22
2018-12-11T15:40:33.300Z,102447.16
2018-12-11T15:43:02.534Z,102453.16
2018-12-11T15:45:31.587Z,102453.08
2018-12-11T15:48:00.559Z,102454.73
2018-12-11T15:50:29.558Z,102461.19
2018-12-11T15:52:58.431Z,102466.75
2018-12-11T15:55:27.779Z,102463.20
2018-12-11T15:57:56.559Z,102466.17
2018-12-11T16:00:25.244Z,102468.28
2018-12-11T16:02:54.404Z,102466.98
2018-12-11T16:05:23.574Z,102468.66
2018-12-11T16:07:52.586Z,102464.25
2018-12-11T16:10:21.741Z,102473.70
2018-12-11T16:12:50.801Z,102474.52
2018-12-11T16:15:19.657Z,102480.87
2018-12-11T16:17:49.163Z,102485.95
2018-12-11T16:20:18.062Z,102479.88
2018-12-11T16:22:47.024Z,102477.67
2018-12-11T16:25:15.987Z,102486.22
2018-12-11T16:27:45.129Z,102490.89
2018-12-11T16:30:14.010Z,102492.13
2018-12-11T16:32:43.655Z,102491.20
2018-12-11T16:35:12.734Z,102495.02
2018-12-11T16:37:41.910Z,102493.22
2018-12-11T16:40:10.912Z,102503.11
2018-12-11T16:42:39.614Z,102507.34
2018-12-11T16:45:08.702Z,102519.37
2018-12-11T16:47:37.336Z,102513.30
2018-12-11T16:50:06.417Z,102521.41
2018-12-11T16:52:35.203Z,102526.52
2018-12-11T16:55:04.363Z,102533.75
2018-12-11T16:57:33.266Z,102501.54
2018-12-11T17:00:02.240Z,102532.30
2018-12-11T17:02:31.529Z,102535.63
2018-12-11T17:05:00.484Z,102545.89
2018-12-11T17:07:29.690Z,102537.59
2018-12-11T17:09:58.809Z,102544.47
2018-12-11T17:12:28.165Z,102548.69
2018-12-11T17:14:58.934Z,102553.78
2018-12-11T17:17:28.490Z,102561.91
2018-12-11T17:19:57.515Z,102563.13
2018-12-11T17:22:26.609Z,102572.59
2018-12-11T17:24:55.480Z,102573.42
2018-12-11T17:27:24.681Z,102575.55
2018-12-11T17:29:53.805Z,102575.02
2018-12-11T17:32:22.539Z,102580.15
2018-12-11T17:34:51.270Z,102570.52
2018-12-11T17:37:20.055Z,102587.74
2018-12-11T17:39:49.860Z,102592.41
2018-12-11T17:42:18.910Z,102594.91
2018-12-11T17:44:47.686Z,102594.00
2018-12-11T17:47:16.369Z,102597.83
2018-12-11T17:49:45.111Z,102591.27
2018-12-11T17:52:13.828Z,102599.87
2018-12-11T17:54:42.684Z,102596.38
2018-12-11T17:57:11.826Z,102594.56
2018-12-11T17:59:40.688Z,102589.36
2018-12-11T18:02:12.108Z,102584.62
2018-12-11T18:04:41.236Z,102587.58
2018-12-11T18:07:10.337Z,102591.41
2018-12-11T18:09:40.223Z,102497.77
2018-12-11T18:12:09.382Z,102594.28
2018-12-11T18:14:41.375Z,102602.84
2018-12-11T18:17:10.067Z,102595.36
2018-12-11T18:19:39.192Z,102603.52
2018-12-11T18:22:12.606Z,102608.25
2018-12-11T18:24:44.831Z,102615.91
2018-12-11T18:27:14.420Z,102625.30
2018-12-11T18:29:43.881Z,102617.57
2018-12-11T18:32:13.809Z,102615.81
2018-12-11T18:34:45.087Z,102610.99
2018-12-11T18:37:14.445Z,102613.53
2018-12-11T18:39:43.327Z,102612.65
2018-12-11T18:42:11.995Z,102613.48
2018-12-11T18:44:40.742Z,102618.64
2018-12-11T18:47:09.535Z,102619.84
2018-12-11T18:49:38.386Z,102617.68
2018-12-11T18:52:07.548Z,102622.80
2018-12-11T18:54:36.267Z,102623.62
2018-12-11T18:57:05.009Z,102630.52
2018-12-11T18:59:34.320Z,102630.48
2018-12-11T19:02:03.268Z,102629.94
2018-12-11T19:04:32.051Z,102634.16
2018-12-11T19:07:00.909Z,102631.55
2018-12-11T19:09:29.664Z,102635.32
2018-12-11T19:11:58.579Z,102634.90
2018-12-11T19:14:27.759Z,102635.27
2018-12-11T19:16:56.626Z,102636.93
2018-12-11T19:19:26.301Z,102629.57
2018-12-11T19:21:55.544Z,102637.29
2018-12-11T19:24:33.100Z,102641.57
2018-12-11T19:27:02.611Z,102644.52
2018-12-11T19:29:32.775Z,102648.34
2018-12-11T19:32:02.220Z,102640.55
2018-12-11T19:34:31.455Z,102645.30
2018-12-11T19:37:00.586Z,102649.95
2018-12-11T19:39:29.841Z,102659.83
2018-12-11T19:41:58.948Z,102664.07
2018-12-11T19:44:27.996Z,102661.84
2018-12-11T19:46:57.307Z,102658.35
2018-12-11T19:49:26.482Z,102655.23
2018-12-11T19:51:55.871Z,102653.05
2018-12-11T19:54:24.890Z,102652.59
2018-12-11T19:56:53.927Z,102658.58
2018-12-11T19:59:22.967Z,102667.91
2018-12-11T20:01:52.185Z,102672.59
2018-12-11T20:04:21.723Z,102669.51
2018-12-11T20:06:51.072Z,102674.61
2018-12-11T20:09:20.249Z,102669.88
2018-12-11T20:11:50.727Z,102672.80
2018-12-11T20:14:20.253Z,102684.71
2018-12-11T20:16:50.232Z,102692.83
2018-12-11T20:19:19.436Z,102689.45
2018-12-11T20:21:49.381Z,102681.61
2018-12-11T20:24:18.626Z,102682.78
2018-12-11T20:26:48.267Z,102689.95
2018-12-11T20:29:17.670Z,102692.48
2018-12-11T20:31:46.981Z,102688.61
2018-12-11T20:34:16.181Z,102689.38
2018-12-11T20:36:45.546Z,102691.39
2018-12-11T20:39:14.635Z,102695.25
2018-12-11T20:41:43.771Z,102697.42
2018-12-11T20:44:12.962Z,102704.72
2018-12-11T20:46:42.227Z,102707.17
2018-12-11T20:49:12.426Z,102705.72
2018-12-11T20:51:41.606Z,102709.62
2018-12-11T20:54:11.198Z,102706.55
2018-12-11T20:56:41.208Z,102706.02
2018-12-11T20:59:10.342Z,102703.80
2018-12-11T21:01:39.690Z,102705.97
2018-12-11T21:04:09.813Z,102719.66
2018-12-11T21:06:39.023Z,102716.62
2018-12-11T21:09:12.377Z,102719.55
2018-12-11T21:11:41.808Z,102719.97
2018-12-11T21:14:11.251Z,102725.55
2018-12-11T21:16:40.277Z,102726.28
2018-12-11T21:19:09.726Z,102731.53
2018-12-11T21:21:39.114Z,102739.20
2018-12-11T21:24:08.442Z,102734.00
2018-12-11T21:26:38.099Z,102729.20
2018-12-11T21:29:07.605Z,102737.78
2018-12-11T21:31:37.069Z,102742.88
2018-12-11T21:34:05.892Z,102740.72
2018-12-11T21:36:34.725Z,102736.91
2018-12-11T21:39:06.076Z,102745.30
2018-12-11T21:41:35.093Z,102752.42
2018-12-11T21:44:03.801Z,102751.95
2018-12-11T21:46:32.861Z,102747.52
2018-12-11T21:49:01.848Z,102740.97
2018-12-11T21:51:30.584Z,102739.55
2018-12-11T21:53:59.496Z,102744.19
2018-12-11T21:56:28.576Z,102744.98
2018-12-11T21:58:57.234Z,102756.45
2018-12-11T22:01:25.900Z,102596.91
2018-12-11T22:03:54.598Z,102773.52
2018-12-11T22:06:23.750Z,102770.59
2018-12-11T22:08:52.476Z,102767.20
2018-12-11T22:11:21.297Z,102776.20
2018-12-11T22:13:50.011Z,102773.98
2018-12-11T22:16:18.689Z,102775.27
2018-12-11T22:18:47.552Z,102772.16
2018-12-11T22:21:16.423Z,102772.92
2018-12-11T22:23:45.118Z,102768.11
2018-12-11T22:26:13.838Z,102772.84
2018-12-11T22:28:42.894Z,102773.25
2018-12-11T22:31:11.593Z,102774.89
2018-12-11T22:33:40.460Z,102783.83
2018-12-11T22:36:09.357Z,102797.98
2018-12-11T22:38:38.341Z,102802.19
2018-12-11T22:41:07.230Z,102802.57
2018-12-11T22:43:35.934Z,102809.05
2018-12-11T22:46:05.323Z,102803.91
2018-12-11T22:48:34.576Z,102799.94
2018-12-11T22:51:04.369Z,102805.44
2018-12-11T22:53:33.254Z,102805.03
2018-12-11T22:56:02.041Z,102807.55
2018-12-11T22:58:30.867Z,102805.83
2018-12-11T23:01:00.491Z,102812.25
2018-12-11T23:03:29.535Z,102816.45
2018-12-11T23:05:59.053Z,102817.63
2018-12-11T23:08:27.732Z,102818.85
2018-12-11T23:10:56.629Z,102827.77
2018-12-11T23:13:25.704Z,102836.30
2018-12-11T23:15:54.699Z,102838.72
2018-12-11T23:18:23.405Z,102839.02
2018-12-11T23:20:52.308Z,102839.74
2018-12-11T23:23:21.278Z,102837.52
2018-12-11T23:25:50.204Z,102832.91
2018-12-11T23:28:19.101Z,102829.96
2018-12-11T23:30:47.864Z,102834.20
2018-12-11T23:33:16.851Z,102837.73
2018-12-11T23:35:45.562Z,102843.34
2018-12-11T23:38:14.243Z,102851.86
2018-12-11T23:40:43.604Z,102848.73
2018-12-11T23:43:12.904Z,102855.52
2018-12-11T23:45:41.840Z,102857.20
2018-12-11T23:48:10.624Z,102862.28
2018-12-11T23:50:39.309Z,102870.92
2018-12-11T23:53:08.410Z,102872.81
2018-12-11T23:55:37.260Z,102880.87
2018-12-11T23:58:06.364Z,102874.70
